الصفحة الرئيسية
METAR-TAF:

METAR-TAF

مطار :

ميناء القاهرة الجوي

القاهرة, مصر

دائرة عرض: 30-08N, خط طول: 031-24E, ارتفاع: 64 متر

مراقبة الطقس الحالي

تاريخ ووقت الإصدار 17 دقيقة قبل الساعة 02:30UTC
ريح 9 عقدة من الجنوب/الجنوب الشرقي
درجة الحرارة 25°درجة مئوية
الرطوبة 41%
ضغط 1011 hPa
الرؤية: 2000 متر
العجاج

METAR: HECA 230230Z 15009KT 2000 HZ NSC 25/11 Q1011 NOSIG

زمن: 04:47 (02:47 UTC)

توقعات

تاريخ ووقت الإصدار 3ساعات و 44 دقيقة قبل الساعة 23:03UTC
التوقعات صالحة من23 الساعة 00 UTC إلى 24 الساعة 06 UTC
ريح 8 عقدة من الجنوب/الجنوب الغربي
الرؤية: 6000 متر
مؤقت
من 23 الساعة 00 UTC إلى 23 الساعة 08 UTC

TAF: HECA 222303Z 2300/2406 20008KT 6000 NSC TEMPO 2300/2308 2000HZ

أرصاد الطقس والتوقعات من أكثر من 4000 مطار (تقارير الطقس للمطار METAR والتنبؤ بالطقس بالمطارTAF).

المحطات المتاحة هي النقط الصفراء والحمراء على الخريطة.

حرك المؤشر فوق النقطة لمعرفة اسم المحطة.

ثم انقر لمعرفة أرصاد وتوقعات الطقس.

لتغيير الخارطة: اضغط على الأزرار الخضراء مع رمز الصليب الأسود للتكبير. على الزر الأخضر مع شرطة للتصغير، أو على الأسهم الخضراء للخرائط المجاورة.


METAR-TAF: